createdAt,value
2017-09-19T00:00:12.806Z,4.83
2017-09-19T00:02:38.754Z,5.03
2017-09-19T00:05:05.493Z,5.40
2017-09-19T00:07:32.190Z,5.27
2017-09-19T00:09:58.183Z,5.10
2017-09-19T00:12:24.130Z,6.83
2017-09-19T00:14:50.820Z,7.83
2017-09-19T00:17:16.800Z,6.83
2017-09-19T00:19:42.750Z,7.50
2017-09-19T00:22:08.693Z,6.33
2017-09-19T00:24:34.672Z,6.63
2017-09-19T00:27:00.645Z,5.47
2017-09-19T00:29:26.645Z,5.80
2017-09-19T00:31:52.584Z,4.97
2017-09-19T00:34:18.570Z,4.63
2017-09-19T00:36:44.514Z,5.07
2017-09-19T00:39:10.494Z,5.33
2017-09-19T00:41:36.457Z,5.23
2017-09-19T00:44:02.429Z,4.77
2017-09-19T00:46:28.373Z,5.20
2017-09-19T00:48:54.318Z,5.30
2017-09-19T00:51:20.324Z,5.63
2017-09-19T00:53:46.293Z,4.90
2017-09-19T00:56:12.235Z,4.50
2017-09-19T00:58:38.231Z,5.60
2017-09-19T01:01:04.222Z,5.13
2017-09-19T01:03:30.181Z,5.10
2017-09-19T01:05:56.382Z,4.93
2017-09-19T01:08:22.320Z,4.83
2017-09-19T01:10:48.265Z,4.70
2017-09-19T01:13:14.255Z,4.20
2017-09-19T01:15:40.206Z,5.00
2017-09-19T01:18:06.210Z,4.80
2017-09-19T01:20:32.191Z,5.20
2017-09-19T01:22:58.130Z,5.67
2017-09-19T01:25:24.115Z,4.80
2017-09-19T01:27:50.070Z,4.60
2017-09-19T01:30:16.014Z,4.93
2017-09-19T01:32:42.734Z,4.77
2017-09-19T01:35:09.494Z,5.00
2017-09-19T01:37:35.462Z,4.33
2017-09-19T01:40:02.152Z,4.87
2017-09-19T01:42:28.125Z,5.00
2017-09-19T01:44:54.082Z,5.00
2017-09-19T01:47:20.076Z,5.47
2017-09-19T01:49:46.030Z,4.90
2017-09-19T01:52:12.726Z,5.20
2017-09-19T01:54:38.715Z,4.60
2017-09-19T01:57:04.731Z,5.10
2017-09-19T01:59:30.718Z,4.87
2017-09-19T02:01:56.679Z,5.10
2017-09-19T02:04:23.439Z,4.50
2017-09-19T02:06:49.394Z,4.60
2017-09-19T02:09:15.386Z,5.17
2017-09-19T02:11:42.081Z,5.00
2017-09-19T02:14:08.042Z,4.53
2017-09-19T02:16:34.054Z,5.03
2017-09-19T02:19:00.020Z,4.63
2017-09-19T02:21:25.965Z,4.70
2017-09-19T02:23:51.958Z,4.67
2017-09-19T02:26:17.926Z,5.13
2017-09-19T02:28:43.887Z,4.13
2017-09-19T02:31:09.873Z,4.50
2017-09-19T02:33:35.846Z,4.57
2017-09-19T02:36:01.830Z,4.30
2017-09-19T02:38:28.570Z,4.20
2017-09-19T02:40:55.268Z,4.90
2017-09-19T02:43:21.227Z,5.17
2017-09-19T02:45:47.194Z,4.40
2017-09-19T02:48:13.882Z,4.33
2017-09-19T02:50:39.915Z,5.10
2017-09-19T02:53:05.882Z,5.53
2017-09-19T02:55:31.834Z,4.93
2017-09-19T02:57:57.821Z,4.40
2017-09-19T03:00:23.778Z,4.70
2017-09-19T03:02:50.502Z,4.90
2017-09-19T03:05:17.229Z,4.90
2017-09-19T03:07:43.964Z,5.80
2017-09-19T03:10:09.961Z,7.10
2017-09-19T03:12:36.669Z,5.47
2017-09-19T03:15:02.638Z,5.43
2017-09-19T03:17:28.587Z,5.53
2017-09-19T03:19:54.561Z,6.13
2017-09-19T03:22:20.511Z,6.27
2017-09-19T03:24:47.261Z,6.20
2017-09-19T03:27:13.217Z,6.83
2017-09-19T03:29:39.183Z,5.70
2017-09-19T03:32:05.186Z,6.60
2017-09-19T03:34:31.162Z,7.00
2017-09-19T03:36:57.187Z,5.47
2017-09-19T03:39:23.873Z,7.00
2017-09-19T03:41:49.838Z,7.40
2017-09-19T03:44:15.826Z,6.47
2017-09-19T03:46:42.567Z,6.27
2017-09-19T03:49:08.610Z,5.70
2017-09-19T03:51:34.578Z,5.20
2017-09-19T03:54:00.609Z,5.27
2017-09-19T03:56:26.598Z,6.37
2017-09-19T03:58:52.549Z,5.90
2017-09-19T04:01:18.534Z,5.23
2017-09-19T04:03:44.494Z,5.83
2017-09-19T04:06:10.491Z,5.80
2017-09-19T04:08:36.527Z,6.60
2017-09-19T04:11:03.270Z,5.97
2017-09-19T04:13:29.258Z,6.20
2017-09-19T04:15:55.959Z,6.13
2017-09-19T04:18:21.923Z,6.57
2017-09-19T04:20:47.922Z,5.87
2017-09-19T04:23:13.972Z,7.07
2017-09-19T04:25:39.942Z,6.43
2017-09-19T04:28:05.946Z,7.97
2017-09-19T04:30:31.894Z,6.70
2017-09-19T04:32:57.882Z,8.30
2017-09-19T04:35:23.885Z,7.47
2017-09-19T04:37:49.882Z,7.90
2017-09-19T04:40:15.838Z,7.70
2017-09-19T04:42:41.797Z,6.57
2017-09-19T04:45:07.811Z,8.20
2017-09-19T04:47:33.892Z,7.83
2017-09-19T04:50:00.670Z,7.40
2017-09-19T04:52:26.641Z,11.33
2017-09-19T04:54:53.333Z,16.50
2017-09-19T04:57:19.314Z,18.20
2017-09-19T04:59:45.266Z,18.80
2017-09-19T05:02:11.966Z,14.93
2017-09-19T05:04:37.950Z,12.83
2017-09-19T05:07:04.008Z,8.90
2017-09-19T05:09:30.752Z,9.70
2017-09-19T05:11:57.452Z,8.30
2017-09-19T05:14:23.438Z,9.20
2017-09-19T05:16:49.394Z,9.83
2017-09-19T05:19:16.091Z,8.80
2017-09-19T05:21:42.090Z,9.17
2017-09-19T05:24:08.054Z,9.00
2017-09-19T05:26:34.021Z,8.70
2017-09-19T05:29:00.001Z,8.23
2017-09-19T05:31:25.983Z,9.90
2017-09-19T05:33:51.974Z,10.07
2017-09-19T05:36:17.931Z,8.50
2017-09-19T05:38:43.886Z,9.13
2017-09-19T05:41:10.617Z,8.83
2017-09-19T05:43:36.630Z,8.20
2017-09-19T05:46:02.625Z,8.37
2017-09-19T05:48:29.318Z,9.10
2017-09-19T05:50:55.343Z,8.87
2017-09-19T05:53:21.302Z,9.53
2017-09-19T05:55:47.290Z,9.63
2017-09-19T05:58:13.250Z,9.83
2017-09-19T06:00:39.242Z,9.50
2017-09-19T06:03:05.234Z,10.50
2017-09-19T06:05:31.182Z,11.43
2017-09-19T06:07:57.206Z,10.23
2017-09-19T06:10:23.903Z,10.33
2017-09-19T06:12:49.869Z,10.20
2017-09-19T06:15:15.886Z,9.50
2017-09-19T06:17:41.849Z,9.03
2017-09-19T06:20:07.803Z,9.40
2017-09-19T06:22:33.790Z,8.60
2017-09-19T06:24:59.742Z,9.20
2017-09-19T06:27:25.690Z,9.20
2017-09-19T06:29:51.694Z,7.73
2017-09-19T06:32:17.666Z,7.50
2017-09-19T06:34:44.409Z,8.40
2017-09-19T06:37:10.362Z,8.57
2017-09-19T06:39:36.309Z,7.87
2017-09-19T06:42:02.312Z,7.53
2017-09-19T06:44:29.014Z,7.40
2017-09-19T06:46:54.962Z,7.60
2017-09-19T06:49:21.003Z,8.10
2017-09-19T06:51:47.006Z,8.23
2017-09-19T06:54:13.013Z,8.50
2017-09-19T06:56:38.973Z,10.47
2017-09-19T06:59:05.707Z,9.43
2017-09-19T07:01:32.452Z,10.97
2017-09-19T07:03:58.410Z,10.33
2017-09-19T07:06:24.366Z,10.40
2017-09-19T07:08:50.407Z,10.37
2017-09-19T07:11:16.395Z,11.70
2017-09-19T07:13:42.399Z,9.27
2017-09-19T07:16:08.389Z,10.50
2017-09-19T07:18:34.370Z,10.80
2017-09-19T07:21:00.319Z,9.00
2017-09-19T07:23:26.314Z,9.43
2017-09-19T07:25:52.278Z,10.60
2017-09-19T07:28:18.259Z,9.47
2017-09-19T07:30:44.262Z,10.60
2017-09-19T07:33:10.213Z,9.53
2017-09-19T07:35:36.169Z,10.63
2017-09-19T07:38:02.154Z,7.90
2017-09-19T07:40:28.846Z,9.17
2017-09-19T07:42:54.886Z,9.30
2017-09-19T07:45:21.589Z,9.07
2017-09-19T07:47:47.560Z,9.43
2017-09-19T07:50:13.559Z,8.43
2017-09-19T07:52:39.513Z,8.53
2017-09-19T07:55:05.526Z,10.93
2017-09-19T07:57:31.490Z,8.63
2017-09-19T07:59:57.495Z,9.63
2017-09-19T08:02:23.450Z,8.03
2017-09-19T08:04:49.448Z,7.80
2017-09-19T08:07:15.447Z,7.67
2017-09-19T08:09:41.402Z,8.03
2017-09-19T08:12:08.122Z,7.70
2017-09-19T08:14:34.894Z,8.97
2017-09-19T08:17:00.850Z,7.77
2017-09-19T08:19:27.545Z,7.67
2017-09-19T08:21:53.535Z,8.17
2017-09-19T08:24:19.490Z,9.00
2017-09-19T08:26:45.505Z,7.57
2017-09-19T08:29:12.243Z,6.90
2017-09-19T08:31:38.242Z,6.90
2017-09-19T08:34:04.940Z,7.37
2017-09-19T08:36:30.900Z,7.10
2017-09-19T08:38:56.891Z,6.13
2017-09-19T08:41:22.851Z,6.90
2017-09-19T08:43:48.850Z,8.30
2017-09-19T08:46:14.819Z,8.20
2017-09-19T08:48:40.818Z,7.30
2017-09-19T08:51:06.779Z,8.20
2017-09-19T08:53:32.729Z,6.80
2017-09-19T08:55:59.466Z,7.93
2017-09-19T08:58:25.410Z,6.93
2017-09-19T09:00:51.374Z,7.20
2017-09-19T09:03:18.113Z,7.67
2017-09-19T09:05:44.082Z,6.23
2017-09-19T09:08:10.079Z,6.30
2017-09-19T09:10:36.779Z,6.50
2017-09-19T09:13:02.762Z,5.60
2017-09-19T09:15:28.766Z,5.80
2017-09-19T09:17:54.718Z,7.03
2017-09-19T09:20:20.675Z,6.17
2017-09-19T09:22:47.411Z,5.57
2017-09-19T09:25:13.358Z,5.97
2017-09-19T09:27:39.346Z,5.57
2017-09-19T09:30:05.303Z,6.80
2017-09-19T09:32:31.254Z,7.30
2017-09-19T09:34:57.238Z,6.23
2017-09-19T09:37:23.942Z,6.47
2017-09-19T09:39:49.937Z,6.50
2017-09-19T09:42:15.918Z,5.90
2017-09-19T09:44:41.901Z,6.80
2017-09-19T09:47:07.895Z,5.80
2017-09-19T09:49:34.589Z,6.20
2017-09-19T09:52:00.550Z,6.70
2017-09-19T09:54:26.542Z,6.50
2017-09-19T09:56:53.254Z,5.20
2017-09-19T09:59:19.998Z,5.67
2017-09-19T10:01:45.986Z,5.87
2017-09-19T10:04:11.986Z,5.93
2017-09-19T10:06:37.991Z,5.77
2017-09-19T10:09:03.955Z,5.90
2017-09-19T10:11:29.971Z,5.00
2017-09-19T10:13:55.963Z,7.03
2017-09-19T10:16:21.938Z,6.10
2017-09-19T10:18:47.907Z,6.30
2017-09-19T10:21:13.893Z,6.00
2017-09-19T10:23:39.892Z,5.37
2017-09-19T10:26:05.838Z,5.20
2017-09-19T10:28:31.790Z,5.70
2017-09-19T10:30:58.531Z,5.17
2017-09-19T10:33:24.486Z,5.63
2017-09-19T10:35:50.484Z,5.70
2017-09-19T10:38:16.482Z,5.30
2017-09-19T10:40:42.478Z,5.60
2017-09-19T10:43:08.455Z,5.53
2017-09-19T10:45:35.158Z,5.50
2017-09-19T10:48:01.154Z,5.10
2017-09-19T10:50:27.110Z,6.00
2017-09-19T10:52:54.206Z,5.50
2017-09-19T10:55:20.162Z,6.33
2017-09-19T10:57:46.137Z,6.20
2017-09-19T11:00:12.127Z,6.47
2017-09-19T11:02:38.098Z,5.60
2017-09-19T11:05:04.139Z,5.73
2017-09-19T11:07:30.106Z,5.57
2017-09-19T11:09:56.064Z,5.90
2017-09-19T11:12:22.090Z,7.03
2017-09-19T11:14:48.069Z,5.10
2017-09-19T11:17:14.062Z,4.80
2017-09-19T11:19:40.014Z,6.20
2017-09-19T11:22:06.039Z,6.07
2017-09-19T11:24:32.773Z,5.43
2017-09-19T11:26:58.734Z,5.03
2017-09-19T11:29:24.686Z,5.60
2017-09-19T11:31:50.706Z,5.60
2017-09-19T11:34:16.692Z,6.60
2017-09-19T11:36:43.458Z,6.00
2017-09-19T11:39:09.434Z,5.47
2017-09-19T11:41:36.140Z,5.20
2017-09-19T11:44:02.138Z,3.70
2017-09-19T11:46:28.103Z,3.27
2017-09-19T11:48:54.062Z,4.00
2017-09-19T11:51:20.065Z,3.50
2017-09-19T11:53:46.034Z,3.43
2017-09-19T11:56:11.994Z,4.13
2017-09-19T11:58:38.746Z,4.37
2017-09-19T12:01:04.706Z,3.60
2017-09-19T12:03:30.666Z,3.73
2017-09-19T12:05:56.678Z,3.97
2017-09-19T12:08:22.638Z,3.07
2017-09-19T12:10:48.634Z,3.90
2017-09-19T12:13:14.622Z,2.97
2017-09-19T12:15:40.586Z,3.40
2017-09-19T12:18:07.328Z,3.00
2017-09-19T12:20:33.280Z,3.60
2017-09-19T12:22:59.250Z,3.20
2017-09-19T12:25:25.238Z,3.13
2017-09-19T12:27:51.954Z,3.43
2017-09-19T12:30:18.701Z,3.90
2017-09-19T12:32:45.390Z,3.50
2017-09-19T12:35:11.402Z,2.80
2017-09-19T12:37:37.354Z,3.10
2017-09-19T12:40:03.430Z,3.20
2017-09-19T12:42:29.414Z,2.83
2017-09-19T12:44:55.374Z,3.30
2017-09-19T12:47:21.391Z,3.80
2017-09-19T12:49:47.361Z,3.80
2017-09-19T12:52:13.354Z,3.50
2017-09-19T12:54:39.342Z,4.00
2017-09-19T12:57:05.294Z,3.70
2017-09-19T12:59:32.025Z,3.50
2017-09-19T13:01:58.724Z,3.30
2017-09-19T13:04:24.759Z,2.83
2017-09-19T13:06:51.489Z,3.10
2017-09-19T13:09:18.191Z,3.77
2017-09-19T13:11:44.178Z,3.77
2017-09-19T13:14:10.210Z,3.37
2017-09-19T13:16:36.183Z,3.20
2017-09-19T13:19:02.188Z,2.70
2017-09-19T13:21:28.195Z,2.90
2017-09-19T13:23:54.182Z,2.40
2017-09-19T13:26:20.909Z,2.67
2017-09-19T13:28:46.869Z,2.40
2017-09-19T13:34:16.084Z,3.00
2017-09-19T13:36:42.826Z,3.60
2017-09-19T13:39:08.818Z,3.10
2017-09-19T13:41:34.786Z,3.23
2017-09-19T13:44:01.527Z,2.97
2017-09-19T13:46:27.548Z,3.43
2017-09-19T13:48:53.583Z,3.57
2017-09-19T13:51:19.546Z,3.30
2017-09-19T13:53:46.249Z,3.40
2017-09-19T13:56:12.323Z,3.20
2017-09-19T13:58:38.273Z,3.30
2017-09-19T14:01:04.295Z,2.60
2017-09-19T14:03:31.010Z,3.23
2017-09-19T14:05:57.053Z,2.40
2017-09-19T14:08:23.053Z,2.80
2017-09-19T14:10:49.002Z,2.50
2017-09-19T14:13:14.962Z,3.20
2017-09-19T14:15:41.749Z,2.70
2017-09-19T14:18:07.746Z,2.73
2017-09-19T14:20:33.774Z,3.70
2017-09-19T14:22:59.776Z,3.30
2017-09-19T14:25:25.774Z,3.50
2017-09-19T14:27:51.726Z,3.20
2017-09-19T14:30:18.470Z,2.80
2017-09-19T14:32:44.428Z,2.80
2017-09-19T14:35:10.382Z,2.60
2017-09-19T14:37:37.110Z,2.50
2017-09-19T14:40:03.822Z,2.20
2017-09-19T14:42:30.578Z,2.80
2017-09-19T14:44:56.566Z,2.27
2017-09-19T14:47:23.298Z,2.53
2017-09-19T14:49:49.990Z,2.37
2017-09-19T14:52:15.999Z,2.80
2017-09-19T14:54:41.953Z,2.30
2017-09-19T14:57:07.912Z,2.40
2017-09-19T14:59:33.900Z,1.93
2017-09-19T15:01:59.918Z,1.53
2017-09-19T15:04:25.912Z,2.40
2017-09-19T15:06:51.879Z,1.77
2017-09-19T15:09:18.605Z,1.70
2017-09-19T15:11:45.682Z,1.90
2017-09-19T15:14:11.634Z,1.70
2017-09-19T15:16:37.751Z,1.90
2017-09-19T15:19:04.507Z,2.10
2017-09-19T15:21:30.558Z,2.43
2017-09-19T15:23:57.243Z,1.90
2017-09-19T15:26:23.271Z,2.13
2017-09-19T15:28:49.285Z,1.77
2017-09-19T15:31:15.298Z,1.90
2017-09-19T15:33:41.254Z,2.10
2017-09-19T15:36:07.948Z,2.57
2017-09-19T15:38:33.962Z,2.10
2017-09-19T15:40:59.929Z,2.20
2017-09-19T15:43:25.910Z,2.50
2017-09-19T15:45:51.923Z,2.40
2017-09-19T15:48:17.906Z,2.60
2017-09-19T15:50:43.858Z,2.40
2017-09-19T15:53:10.585Z,2.37
2017-09-19T15:55:37.314Z,2.00
2017-09-19T15:58:04.014Z,2.30
2017-09-19T16:00:29.962Z,2.07
2017-09-19T16:02:56.030Z,2.00
2017-09-19T16:05:22.031Z,2.60
2017-09-19T16:07:48.024Z,2.50
2017-09-19T16:10:13.983Z,1.70
2017-09-19T16:12:40.726Z,2.73
2017-09-19T16:15:06.726Z,1.63
2017-09-19T16:17:32.677Z,2.20
2017-09-19T16:19:58.679Z,2.53
2017-09-19T16:22:24.810Z,2.13
2017-09-19T16:24:50.795Z,2.20
2017-09-19T16:27:16.778Z,2.57
2017-09-19T16:29:42.774Z,2.47
2017-09-19T16:32:09.507Z,2.20
2017-09-19T16:34:35.514Z,1.93
2017-09-19T16:37:01.480Z,2.30
2017-09-19T16:39:27.514Z,2.20
2017-09-19T16:41:54.270Z,2.23
2017-09-19T16:44:20.307Z,1.90
2017-09-19T16:46:46.270Z,2.90
2017-09-19T16:49:12.975Z,3.87
2017-09-19T16:51:38.970Z,3.00
2017-09-19T16:54:04.935Z,4.00
2017-09-19T16:56:30.951Z,3.80
2017-09-19T16:58:56.910Z,4.00
2017-09-19T17:01:23.716Z,4.03
2017-09-19T17:03:49.714Z,4.27
2017-09-19T17:06:15.682Z,3.60
2017-09-19T17:08:41.667Z,3.47
2017-09-19T17:11:08.406Z,3.07
2017-09-19T17:13:34.394Z,3.53
2017-09-19T17:16:00.435Z,3.23
2017-09-19T17:18:26.500Z,3.20
2017-09-19T17:20:52.516Z,3.10
2017-09-19T17:23:18.523Z,3.10
2017-09-19T17:25:44.513Z,4.50
2017-09-19T17:28:10.507Z,3.83
2017-09-19T17:30:36.467Z,3.20
2017-09-19T17:33:03.166Z,2.30
2017-09-19T17:35:29.151Z,3.43
2017-09-19T17:37:55.162Z,3.63
2017-09-19T17:40:21.149Z,4.03
2017-09-19T17:42:47.110Z,3.57
2017-09-19T17:45:13.099Z,4.03
2017-09-19T17:47:39.090Z,3.87
2017-09-19T17:50:05.039Z,2.83
2017-09-19T17:52:31.042Z,3.67
2017-09-19T17:54:57.005Z,3.97
2017-09-19T17:57:22.987Z,3.70
2017-09-19T17:59:49.758Z,5.83
2017-09-19T18:02:15.726Z,4.30
2017-09-19T18:04:41.681Z,3.50
2017-09-19T18:07:07.661Z,3.50
2017-09-19T18:09:33.630Z,3.80
2017-09-19T18:11:59.616Z,3.80
2017-09-19T18:14:25.616Z,3.10
2017-09-19T18:16:51.639Z,3.30
2017-09-19T18:19:17.630Z,3.80
2017-09-19T18:21:43.582Z,3.20
2017-09-19T18:24:10.315Z,3.40
2017-09-19T18:26:37.050Z,3.33
2017-09-19T18:29:03.002Z,3.87
2017-09-19T18:31:28.987Z,4.20
2017-09-19T18:33:54.975Z,3.43
2017-09-19T18:36:20.984Z,3.43
2017-09-19T18:38:46.950Z,3.80
2017-09-19T18:41:12.948Z,3.50
2017-09-19T18:43:38.910Z,4.20
2017-09-19T18:46:05.675Z,4.10
2017-09-19T18:48:31.638Z,3.60
2017-09-19T18:50:57.606Z,4.13
2017-09-19T18:53:23.634Z,4.13
2017-09-19T18:55:49.594Z,4.03
2017-09-19T18:58:15.553Z,3.97
2017-09-19T19:00:42.278Z,4.03
2017-09-19T19:03:08.230Z,4.37
2017-09-19T19:05:34.222Z,3.77
2017-09-19T19:08:00.252Z,4.17
2017-09-19T19:10:26.202Z,4.00
2017-09-19T19:12:52.194Z,4.40
2017-09-19T19:15:18.155Z,4.33
2017-09-19T19:17:44.157Z,5.50
2017-09-19T19:20:10.115Z,4.80
2017-09-19T19:22:36.102Z,4.77
2017-09-19T19:25:02.050Z,5.50
2017-09-19T19:27:28.049Z,5.33
2017-09-19T19:29:54.014Z,5.80
2017-09-19T19:32:20.034Z,5.80
2017-09-19T19:34:45.983Z,5.60
2017-09-19T19:37:11.933Z,6.30
2017-09-19T19:39:37.935Z,6.70
2017-09-19T19:42:03.902Z,6.90
2017-09-19T19:44:29.850Z,7.20
2017-09-19T19:46:55.855Z,6.17
2017-09-19T19:49:21.885Z,5.83
2017-09-19T19:51:47.906Z,6.57
2017-09-19T19:54:13.871Z,6.47
2017-09-19T19:56:40.610Z,6.57
2017-09-19T19:59:06.610Z,6.47
2017-09-19T20:01:33.299Z,7.43
2017-09-19T20:03:59.282Z,6.17
2017-09-19T20:06:25.289Z,6.73
2017-09-19T20:08:51.312Z,6.20
2017-09-19T20:11:17.289Z,6.30
2017-09-19T20:13:43.238Z,6.30
2017-09-19T20:16:09.221Z,5.77
2017-09-19T20:18:35.218Z,5.93
2017-09-19T20:21:01.177Z,6.67
2017-09-19T20:23:27.170Z,6.47
2017-09-19T20:25:53.142Z,6.67
2017-09-19T20:28:19.129Z,6.07
2017-09-19T20:30:45.938Z,6.23
2017-09-19T20:33:11.920Z,5.70
2017-09-19T20:35:37.877Z,5.50
2017-09-19T20:38:04.626Z,6.50
2017-09-19T20:40:30.586Z,6.03
2017-09-19T20:42:56.542Z,5.00
2017-09-19T20:45:22.537Z,5.80
2017-09-19T20:47:48.528Z,6.30
2017-09-19T20:50:15.231Z,5.60
2017-09-19T20:52:41.254Z,5.07
2017-09-19T20:55:07.952Z,5.30
2017-09-19T20:57:33.926Z,5.40
2017-09-19T20:59:59.925Z,5.63
2017-09-19T21:02:25.888Z,5.50
2017-09-19T21:04:57.955Z,4.90
2017-09-19T21:07:30.768Z,5.10
2017-09-19T21:10:02.987Z,4.30
2017-09-19T21:12:35.794Z,5.40
2017-09-19T21:15:07.974Z,5.20
2017-09-19T21:17:40.077Z,5.33
2017-09-19T21:20:06.023Z,5.13
2017-09-19T21:22:31.994Z,5.97
2017-09-19T21:24:58.022Z,4.03
2017-09-19T21:27:23.991Z,5.90
2017-09-19T21:29:50.720Z,4.90
2017-09-19T21:32:17.458Z,5.10
2017-09-19T21:34:43.418Z,4.80
2017-09-19T21:37:09.370Z,4.83
2017-09-19T21:39:35.350Z,5.60
2017-09-19T21:42:01.302Z,6.37
2017-09-19T21:44:27.294Z,5.30
2017-09-19T21:46:53.258Z,4.67
2017-09-19T21:49:19.250Z,5.80
2017-09-19T21:51:45.234Z,5.67
2017-09-19T21:54:11.214Z,5.23
2017-09-19T21:56:37.958Z,5.30
2017-09-19T21:59:03.921Z,5.40
2017-09-19T22:01:29.879Z,5.20
2017-09-19T22:03:55.933Z,5.77
2017-09-19T22:06:21.899Z,4.60
2017-09-19T22:08:47.898Z,4.60
2017-09-19T22:11:13.868Z,5.97
2017-09-19T22:13:39.817Z,5.30
2017-09-19T22:16:05.803Z,5.07
2017-09-19T22:18:32.494Z,5.53
2017-09-19T22:20:58.480Z,6.07
2017-09-19T22:23:24.466Z,5.33
2017-09-19T22:25:50.462Z,11.90
2017-09-19T22:28:17.159Z,8.03
2017-09-19T22:30:43.106Z,6.77
2017-09-19T22:33:09.091Z,6.93
2017-09-19T22:35:35.046Z,5.93
2017-09-19T22:38:00.998Z,6.40
2017-09-19T22:40:26.982Z,6.73
2017-09-19T22:42:52.987Z,6.80
2017-09-19T22:45:18.978Z,6.37
2017-09-19T22:47:44.950Z,5.90
2017-09-19T22:50:11.695Z,7.13
2017-09-19T22:52:37.649Z,6.53
2017-09-19T22:55:03.602Z,5.83
2017-09-19T22:57:30.334Z,6.40
2017-09-19T22:59:56.298Z,5.60
2017-09-19T23:02:22.302Z,5.47
2017-09-19T23:04:48.269Z,6.33
2017-09-19T23:07:14.263Z,5.60
2017-09-19T23:09:40.221Z,5.63
2017-09-19T23:12:06.188Z,5.87
2017-09-19T23:14:32.174Z,6.33
2017-09-19T23:16:58.871Z,6.17
2017-09-19T23:19:24.850Z,6.67
2017-09-19T23:21:50.842Z,6.30
2017-09-19T23:24:16.861Z,6.23
2017-09-19T23:26:42.883Z,5.73
2017-09-19T23:29:08.834Z,6.80
2017-09-19T23:31:34.794Z,6.20
2017-09-19T23:34:00.809Z,6.80
2017-09-19T23:36:26.765Z,7.77
2017-09-19T23:38:53.475Z,6.73
2017-09-19T23:41:19.470Z,6.57
2017-09-19T23:43:45.454Z,6.60
2017-09-19T23:46:11.406Z,7.23
2017-09-19T23:48:37.438Z,7.50
2017-09-19T23:51:03.396Z,6.90
2017-09-19T23:53:29.350Z,7.10
2017-09-19T23:55:56.078Z,6.63
2017-09-19T23:58:22.811Z,6.97
